createdAt,value
2023-05-06T00:01:52.476Z,63.30
2023-05-06T00:06:56.844Z,63.08
2023-05-06T00:11:59.802Z,62.76
2023-05-06T00:17:02.611Z,62.54
2023-05-06T00:22:05.739Z,62.52
2023-05-06T00:27:11.737Z,62.63
2023-05-06T00:32:14.584Z,62.47
2023-05-06T00:37:17.447Z,62.19
2023-05-06T00:42:23.268Z,62.25
2023-05-06T00:47:26.173Z,62.15
2023-05-06T00:52:29.043Z,61.51
2023-05-06T00:57:31.978Z,61.44
2023-05-06T01:02:46.354Z,60.81
2023-05-06T01:08:00.370Z,60.55
2023-05-06T01:13:17.461Z,60.66
2023-05-06T01:18:22.906Z,60.37
2023-05-06T01:23:25.970Z,60.12
2023-05-06T01:28:29.567Z,60.00
2023-05-06T01:33:45.469Z,60.02
2023-05-06T01:39:18.335Z,59.70
2023-05-06T01:44:22.335Z,59.43
2023-05-06T01:49:25.194Z,59.46
2023-05-06T01:54:28.093Z,59.35
2023-05-06T01:59:30.999Z,58.97
2023-05-06T02:04:33.937Z,58.84
2023-05-06T02:09:36.806Z,58.69
2023-05-06T02:14:39.708Z,58.79
2023-05-06T02:19:42.631Z,58.53
2023-05-06T02:24:45.505Z,58.54
2023-05-06T02:29:48.589Z,58.64
2023-05-06T02:34:53.235Z,58.77
2023-05-06T02:39:56.068Z,58.81
2023-05-06T02:44:58.976Z,58.72
2023-05-06T02:50:01.961Z,58.69
2023-05-06T02:55:06.552Z,58.58
2023-05-06T03:00:13.977Z,58.94
2023-05-06T03:05:16.951Z,59.13
2023-05-06T03:10:19.817Z,58.69
2023-05-06T03:15:22.728Z,58.86
2023-05-06T03:20:25.787Z,59.06
2023-05-06T03:25:28.634Z,58.73
2023-05-06T03:30:31.541Z,58.95
2023-05-06T03:35:34.539Z,59.01
2023-05-06T03:40:37.546Z,59.32
2023-05-06T03:45:40.511Z,59.40
2023-05-06T03:50:43.387Z,59.50
2023-05-06T03:55:46.221Z,59.74
2023-05-06T04:00:49.174Z,59.33
2023-05-06T04:05:51.990Z,59.33
2023-05-06T04:10:55.336Z,59.02
2023-05-06T04:15:58.572Z,58.96
2023-05-06T04:21:01.535Z,59.15
2023-05-06T04:26:04.478Z,59.08
2023-05-06T04:31:08.808Z,59.04
2023-05-06T04:36:13.004Z,59.27
2023-05-06T04:41:15.877Z,59.32
2023-05-06T04:46:18.866Z,59.31
2023-05-06T04:51:21.797Z,59.40
2023-05-06T04:56:24.607Z,59.38
2023-05-06T05:01:27.524Z,59.54
2023-05-06T05:06:32.146Z,59.75
2023-05-06T05:11:38.236Z,59.88
2023-05-06T05:16:41.964Z,60.14
2023-05-06T05:21:44.813Z,60.01
2023-05-06T05:26:47.661Z,59.77
2023-05-06T05:31:50.537Z,59.92
2023-05-06T05:36:53.391Z,59.77
2023-05-06T05:41:56.463Z,59.80
2023-05-06T05:46:59.388Z,59.11
2023-05-06T05:52:02.506Z,58.44
2023-05-06T05:57:05.606Z,58.00
2023-05-06T06:02:08.758Z,57.29
2023-05-06T06:07:11.791Z,56.40
2023-05-06T06:12:15.608Z,56.02
2023-05-06T06:17:18.580Z,55.10
2023-05-06T06:22:21.373Z,54.69
2023-05-06T06:27:24.348Z,54.57
2023-05-06T06:32:27.224Z,53.88
2023-05-06T06:37:30.241Z,53.44
2023-05-06T06:42:33.111Z,53.24
2023-05-06T06:47:36.504Z,52.69
2023-05-06T06:52:39.964Z,51.97
2023-05-06T06:57:42.841Z,52.10
2023-05-06T07:02:48.116Z,51.42
2023-05-06T07:07:51.260Z,51.02
2023-05-06T07:12:54.284Z,51.26
2023-05-06T07:17:57.436Z,50.54
2023-05-06T07:23:00.258Z,49.28
2023-05-06T07:28:03.441Z,48.85
2023-05-06T07:33:06.507Z,48.63
2023-05-06T07:38:09.388Z,47.66
2023-05-06T07:43:12.410Z,47.63
2023-05-06T07:48:15.809Z,46.39
2023-05-06T07:53:21.154Z,46.18
2023-05-06T07:58:24.090Z,46.07
2023-05-06T08:03:27.322Z,45.02
2023-05-06T08:08:30.514Z,43.93
2023-05-06T08:13:33.621Z,43.42
2023-05-06T08:18:36.458Z,43.31
2023-05-06T08:23:39.331Z,42.64
2023-05-06T08:28:42.318Z,42.66
2023-05-06T08:33:45.231Z,43.00
2023-05-06T08:38:51.004Z,43.03
2023-05-06T08:43:54.898Z,43.35
2023-05-06T08:49:00.972Z,43.71
2023-05-06T08:54:04.764Z,43.41
2023-05-06T08:59:09.546Z,43.27
2023-05-06T09:04:12.538Z,42.41
2023-05-06T09:09:15.549Z,41.36
2023-05-06T09:14:18.364Z,41.92
2023-05-06T09:19:22.145Z,41.43
2023-05-06T09:24:24.974Z,40.86
2023-05-06T09:29:27.805Z,41.01
2023-05-06T09:34:30.745Z,40.95
2023-05-06T09:39:33.641Z,40.30
2023-05-06T09:44:36.494Z,39.91
2023-05-06T09:49:39.808Z,40.47
2023-05-06T09:54:42.750Z,40.74
2023-05-06T09:59:45.660Z,41.01
2023-05-06T10:04:49.061Z,41.24
2023-05-06T10:09:52.706Z,40.52
2023-05-06T10:14:56.115Z,40.99
2023-05-06T10:19:59.794Z,40.76
2023-05-06T10:25:16.982Z,41.23
2023-05-06T10:30:19.833Z,40.12
2023-05-06T10:35:31.790Z,39.75
2023-05-06T10:40:34.712Z,39.58
2023-05-06T10:46:04.484Z,39.91
2023-05-06T10:51:16.822Z,40.19
2023-05-06T10:56:19.774Z,40.32
2023-05-06T11:01:26.522Z,40.50
2023-05-06T11:06:34.244Z,40.62
2023-05-06T11:12:06.156Z,41.12
2023-05-06T11:17:28.776Z,41.53
2023-05-06T11:22:40.793Z,42.13
2023-05-06T11:27:43.696Z,42.11
2023-05-06T11:32:46.700Z,41.75
2023-05-06T11:37:49.888Z,41.81
2023-05-06T11:42:52.860Z,41.65
2023-05-06T11:47:55.992Z,41.65
2023-05-06T11:52:59.022Z,42.49
2023-05-06T11:58:02.030Z,43.26
2023-05-06T12:03:05.052Z,43.99
2023-05-06T12:08:19.832Z,44.90
2023-05-06T12:13:29.529Z,45.56
2023-05-06T12:18:32.395Z,46.78
2023-05-06T12:23:35.264Z,47.81
2023-05-06T12:28:38.200Z,48.74
2023-05-06T12:33:46.175Z,49.57
2023-05-06T12:38:57.877Z,50.66
2023-05-06T12:44:00.857Z,51.97
2023-05-06T12:49:03.918Z,54.73
2023-05-06T12:54:30.652Z,54.49
2023-05-06T12:59:35.776Z,56.27
2023-05-06T13:04:38.737Z,57.17
2023-05-06T13:09:41.611Z,57.63
2023-05-06T13:14:44.599Z,58.52
2023-05-06T13:19:47.689Z,59.72
2023-05-06T13:24:51.377Z,60.64
2023-05-06T13:29:54.244Z,61.59
2023-05-06T13:34:57.265Z,63.40
2023-05-06T13:40:00.231Z,63.59
2023-05-06T13:45:03.248Z,65.02
2023-05-06T13:50:07.251Z,65.83
2023-05-06T13:55:10.667Z,67.77
2023-05-06T14:00:14.394Z,68.82
2023-05-06T14:05:17.411Z,70.24
2023-05-06T14:10:21.139Z,70.41
2023-05-06T14:15:24.057Z,71.10
2023-05-06T14:20:26.866Z,72.36
2023-05-06T14:25:29.773Z,73.48
2023-05-06T14:30:34.321Z,73.30
2023-05-06T14:35:42.168Z,74.15
2023-05-06T14:40:45.013Z,74.24
2023-05-06T14:45:47.949Z,73.74
2023-05-06T14:50:50.936Z,73.88
2023-05-06T14:55:54.252Z,73.99
2023-05-06T15:00:57.164Z,74.43
2023-05-06T15:06:00.390Z,74.55
2023-05-06T15:11:04.423Z,74.79
2023-05-06T15:16:10.547Z,74.45
2023-05-06T15:21:14.340Z,76.45
2023-05-06T15:26:17.227Z,76.67
2023-05-06T15:31:20.561Z,77.48
2023-05-06T15:36:23.361Z,77.47
2023-05-06T15:41:31.804Z,78.53
2023-05-06T15:46:34.793Z,78.77
2023-05-06T15:51:37.790Z,78.09
2023-05-06T15:56:41.660Z,79.21
2023-05-06T16:06:51.995Z,80.02
2023-05-06T16:11:54.894Z,82.19
2023-05-06T16:16:58.312Z,83.91
2023-05-06T16:22:02.179Z,85.77
2023-05-06T16:27:05.723Z,86.90
2023-05-06T16:32:27.026Z,87.10
2023-05-06T16:37:29.896Z,88.38
2023-05-06T16:42:32.968Z,88.62
2023-05-06T16:47:36.414Z,88.85
2023-05-06T16:52:40.642Z,89.59
2023-05-06T16:57:43.604Z,90.12
2023-05-06T17:02:49.624Z,90.45
2023-05-06T17:07:52.798Z,90.66
2023-05-06T17:12:57.456Z,91.29
2023-05-06T17:18:00.592Z,91.55
2023-05-06T17:23:03.825Z,92.00
2023-05-06T17:28:06.711Z,92.07
2023-05-06T17:33:10.047Z,92.45
2023-05-06T17:38:13.356Z,92.69
2023-05-06T17:43:16.343Z,92.58
2023-05-06T17:48:19.287Z,92.83
2023-05-06T17:53:23.045Z,92.87
2023-05-06T17:58:25.962Z,93.29
2023-05-06T18:03:28.899Z,93.43
2023-05-06T18:08:31.885Z,93.46
2023-05-06T18:13:35.372Z,93.45
2023-05-06T18:18:38.173Z,94.01
2023-05-06T18:23:41.189Z,94.13
2023-05-06T18:28:44.088Z,94.30
2023-05-06T18:33:47.134Z,94.59
2023-05-06T18:38:50.040Z,94.80
2023-05-06T18:43:52.877Z,94.86
2023-05-06T18:48:56.122Z,95.28
2023-05-06T18:53:59.049Z,95.49
2023-05-06T18:59:02.178Z,95.28
2023-05-06T19:04:06.011Z,95.32
2023-05-06T19:09:08.865Z,95.34
2023-05-06T19:14:11.831Z,95.54
2023-05-06T19:19:14.655Z,95.85
2023-05-06T19:24:17.564Z,95.85
2023-05-06T19:29:20.524Z,96.13
2023-05-06T19:34:24.290Z,96.22
2023-05-06T19:39:27.316Z,96.18
2023-05-06T19:44:33.406Z,96.70
2023-05-06T19:49:36.225Z,96.32
2023-05-06T19:54:39.300Z,96.61
2023-05-06T19:59:42.255Z,96.85
2023-05-06T20:04:45.380Z,96.98
2023-05-06T20:09:48.218Z,97.08
2023-05-06T20:14:51.040Z,96.92
2023-05-06T20:19:57.426Z,97.29
2023-05-06T20:25:17.449Z,97.36
2023-05-06T20:30:20.876Z,97.21
2023-05-06T20:35:23.922Z,97.23
2023-05-06T20:40:26.808Z,97.19
2023-05-06T20:45:31.115Z,97.45
2023-05-06T20:50:34.036Z,97.51
2023-05-06T20:55:37.372Z,97.67
2023-05-06T21:00:40.418Z,98.32
2023-05-06T21:05:43.309Z,98.21
2023-05-06T21:10:46.193Z,97.91
2023-05-06T21:15:49.150Z,97.89
2023-05-06T21:20:52.116Z,97.97
2023-05-06T21:25:55.080Z,98.09
2023-05-06T21:30:58.379Z,98.52
2023-05-06T21:36:01.303Z,98.70
2023-05-06T21:41:04.164Z,98.90
2023-05-06T21:46:07.152Z,99.02
2023-05-06T21:51:09.962Z,99.23
2023-05-06T21:56:12.884Z,98.81
2023-05-06T22:01:16.110Z,98.72
2023-05-06T22:06:19.075Z,98.86
2023-05-06T22:11:23.825Z,99.21
2023-05-06T22:16:26.720Z,99.36
2023-05-06T22:21:32.620Z,99.23
2023-05-06T22:26:35.488Z,99.31
2023-05-06T22:31:38.423Z,99.50
2023-05-06T22:36:41.396Z,99.68
2023-05-06T22:41:44.774Z,99.47
2023-05-06T22:46:47.684Z,99.43
2023-05-06T22:51:50.581Z,99.50
2023-05-06T22:56:53.557Z,99.72
2023-05-06T23:01:56.801Z,99.73
2023-05-06T23:06:59.643Z,99.81
2023-05-06T23:12:02.793Z,99.95
2023-05-06T23:17:07.406Z,99.95
2023-05-06T23:22:10.481Z,99.94
2023-05-06T23:27:13.340Z,99.95
2023-05-06T23:32:16.225Z,100.00
2023-05-06T23:37:19.320Z,100.00
2023-05-06T23:42:22.805Z,100.00
2023-05-06T23:47:26.246Z,100.00
2023-05-06T23:52:29.640Z,100.00
2023-05-06T23:57:32.528Z,100.00
